Terminal Aerodrome Forecast
Issued by NWS

Home | Current Version | Previous Version | Text Only | Print | Product List | Glossary On
Versions: 1 2 3 4 5 6 7 8 9 10 11 12 13 14
083
FTPA31 PHFO 182338
TAFHMK
TAF
PHMK 182338Z 1900/1924 34010KT P6SM FEW020 SCT045
     FM190600 35005KT P6SM VCSH SCT020 BKN045
     FM192000 34012KT P6SM SCT020 SCT045=

USA.gov is the U.S. government's official web portal to all federal, state and local government web resources and services.